Time,TemperatureF,DewpointF,PressureIn,WindDirection,WindDirectionDegrees,WindSpeedMPH,WindSpeedGustMPH,Humidity,HourlyPrecipIn,Conditions,Clouds,dailyrainin,SolarRadiationWatts/m^2,SoftwareType,DateUTC
2013-09-13 00:03:00,47.0,43.0,-100.00,North,349,2.0,3.0,85,0.00,,,0.00,0.000000,,2013-09-13 05:03:00,
2013-09-13 00:22:00,45.0,41.0,-100.00,WNW,282,3.0,4.0,87,0.00,,,0.00,0.000000,,2013-09-13 05:22:00,
2013-09-13 00:34:00,45.0,41.0,-100.00,WNW,282,3.0,4.0,87,0.00,,,0.00,0.000000,,2013-09-13 05:34:00,
2013-09-13 00:43:00,45.0,41.0,-100.00,WNW,282,3.0,4.0,87,0.00,,,0.00,0.000000,,2013-09-13 05:43:00,
2013-09-13 00:53:00,45.0,41.0,-100.00,WNW,282,3.0,4.0,87,0.00,,,0.00,0.000000,,2013-09-13 05:53:00,
2013-09-13 01:02:00,45.0,41.0,-100.00,WNW,282,3.0,4.0,87,0.00,,,0.00,0.000000,,2013-09-13 06:02:00,
2013-09-13 01:22:00,45.0,42.0,-100.00,SW,236,2.0,3.0,90,0.00,,,0.00,0.000000,,2013-09-13 06:22:00,
2013-09-13 01:32:00,45.0,42.0,-100.00,SW,236,2.0,3.0,90,0.00,,,0.00,0.000000,,2013-09-13 06:32:00,
2013-09-13 01:42:00,45.0,42.0,-100.00,SW,236,2.0,3.0,90,0.00,,,0.00,0.000000,,2013-09-13 06:42:00,
2013-09-13 01:52:00,45.0,42.0,-100.00,SW,236,2.0,3.0,90,0.00,,,0.00,0.000000,,2013-09-13 06:52:00,
2013-09-13 02:02:00,45.0,42.0,-100.00,SW,236,2.0,3.0,90,0.00,,,0.00,0.000000,,2013-09-13 07:02:00,
2013-09-13 02:22:00,45.0,41.0,-100.00,SW,227,2.0,4.0,86,0.00,,,0.00,0.000000,,2013-09-13 07:22:00,
2013-09-13 02:34:00,45.0,41.0,-100.00,SW,227,2.0,4.0,86,0.00,,,0.00,0.000000,,2013-09-13 07:34:00,
2013-09-13 02:43:00,45.0,41.0,-100.00,SW,227,2.0,4.0,86,0.00,,,0.00,0.000000,,2013-09-13 07:43:00,
2013-09-13 02:52:00,45.0,41.0,-100.00,SW,227,2.0,4.0,86,0.00,,,0.00,0.000000,,2013-09-13 07:52:00,
2013-09-13 03:02:00,45.0,41.0,-100.00,SW,227,2.0,4.0,86,0.00,,,0.00,0.000000,,2013-09-13 08:02:00,
2013-09-13 03:42:00,47.0,44.0,-100.00,WSW,254,3.0,5.0,88,0.00,,,0.00,0.000000,,2013-09-13 08:42:00,
2013-09-13 03:52:00,47.0,44.0,-100.00,WSW,254,3.0,5.0,88,0.00,,,0.00,0.000000,,2013-09-13 08:52:00,
2013-09-13 04:02:00,47.0,44.0,-100.00,WSW,254,3.0,5.0,88,0.00,,,0.00,0.000000,,2013-09-13 09:02:00,
2013-09-13 04:21:00,45.0,41.0,-100.00,West,266,3.0,4.0,87,0.00,,,0.00,0.000000,,2013-09-13 09:21:00,
2013-09-13 04:33:00,45.0,41.0,-100.00,West,266,3.0,4.0,87,0.00,,,0.00,0.000000,,2013-09-13 09:33:00,
2013-09-13 04:43:00,45.0,41.0,-100.00,West,266,3.0,4.0,87,0.00,,,0.00,0.000000,,2013-09-13 09:43:00,
2013-09-13 04:54:00,45.0,41.0,-100.00,West,266,3.0,4.0,87,0.00,,,0.00,0.000000,,2013-09-13 09:54:00,
2013-09-13 05:03:00,45.0,41.0,-100.00,West,266,3.0,4.0,87,0.00,,,0.00,0.000000,,2013-09-13 10:03:00,
2013-09-13 05:42:00,45.0,43.0,-100.00,WSW,256,3.0,6.0,91,0.00,,,0.00,0.000000,,2013-09-13 10:42:00,
2013-09-13 05:53:00,45.0,43.0,-100.00,WSW,256,3.0,6.0,91,0.00,,,0.00,0.000000,,2013-09-13 10:53:00,
2013-09-13 06:03:00,45.0,43.0,-100.00,WSW,256,3.0,6.0,91,0.00,,,0.00,0.000000,,2013-09-13 11:03:00,
2013-09-13 06:42:00,44.0,42.0,-100.00,WSW,241,2.0,4.0,91,0.00,,,0.00,0.000000,,2013-09-13 11:42:00,
2013-09-13 06:52:00,44.0,42.0,-100.00,WSW,241,2.0,4.0,91,0.00,,,0.00,0.000000,,2013-09-13 11:52:00,
2013-09-13 07:01:00,44.0,42.0,-100.00,WSW,241,2.0,4.0,91,0.00,,,0.00,0.000000,,2013-09-13 12:01:00,
2013-09-13 07:42:00,45.0,44.0,-100.00,SW,236,2.0,4.0,95,0.00,,,0.00,4.000000,,2013-09-13 12:42:00,
2013-09-13 07:52:00,45.0,44.0,-100.00,SW,236,2.0,4.0,95,0.00,,,0.00,4.000000,,2013-09-13 12:52:00,
2013-09-13 08:02:00,45.0,44.0,-100.00,SW,236,2.0,4.0,95,0.00,,,0.00,4.000000,,2013-09-13 13:02:00,
2013-09-13 08:42:00,50.0,48.0,-100.00,SW,235,3.0,6.0,94,0.00,,,0.00,107.000000,,2013-09-13 13:42:00,
2013-09-13 08:52:00,50.0,48.0,-100.00,SW,235,3.0,6.0,94,0.00,,,0.00,107.000000,,2013-09-13 13:52:00,
2013-09-13 09:02:00,50.0,48.0,-100.00,SW,235,3.0,6.0,94,0.00,,,0.00,107.000000,,2013-09-13 14:02:00,
2013-09-13 09:52:00,55.0,49.0,-100.00,SW,218,3.0,6.0,80,0.00,,,0.00,327.000000,,2013-09-13 14:52:00,
2013-09-13 10:02:00,55.0,49.0,-100.00,SW,218,3.0,6.0,80,0.00,,,0.00,327.000000,,2013-09-13 15:02:00,
2013-09-13 10:43:00,60.0,49.0,-100.00,SSW,197,4.0,7.0,67,0.00,,,-99.99,495.000000,,2013-09-13 15:43:00,
2013-09-13 10:53:00,60.0,49.0,-100.00,SSW,197,4.0,7.0,67,0.00,,,-99.99,495.000000,,2013-09-13 15:53:00,
2013-09-13 11:03:00,60.0,49.0,-100.00,SSW,197,4.0,7.0,67,0.00,,,-99.99,495.000000,,2013-09-13 16:03:00,
2013-09-13 11:04:00,63.0,47.0,-100.00,SW,228,5.0,9.0,56,0.00,,,0.00,657.000000,,2013-09-13 16:04:00,
2013-09-13 11:43:00,63.0,47.0,-100.00,SW,228,5.0,9.0,56,0.00,,,0.00,657.000000,,2013-09-13 16:43:00,
2013-09-13 11:54:00,63.0,47.0,-100.00,SW,228,5.0,9.0,56,0.00,,,0.00,657.000000,,2013-09-13 16:54:00,
2013-09-13 12:44:00,62.0,45.0,-100.00,SSW,209,5.0,10.0,54,0.00,,,0.00,574.000000,,2013-09-13 17:44:00,
2013-09-13 12:53:00,62.0,45.0,-100.00,SSW,209,5.0,10.0,54,0.00,,,0.00,574.000000,,2013-09-13 17:53:00,
2013-09-13 13:02:00,62.0,45.0,-100.00,SSW,209,5.0,10.0,54,0.00,,,0.00,574.000000,,2013-09-13 18:02:00,
2013-09-13 13:22:00,63.0,45.0,-100.00,South,189,5.0,10.0,52,0.00,,,0.00,585.000000,,2013-09-13 18:22:00,
2013-09-13 13:32:00,63.0,45.0,-100.00,South,189,5.0,10.0,52,0.00,,,0.00,585.000000,,2013-09-13 18:32:00,
2013-09-13 13:42:00,63.0,45.0,-100.00,South,189,5.0,10.0,52,0.00,,,0.00,585.000000,,2013-09-13 18:42:00,
2013-09-13 13:52:00,63.0,45.0,-100.00,South,189,5.0,10.0,52,0.00,,,0.00,585.000000,,2013-09-13 18:52:00,
2013-09-13 14:01:00,63.0,45.0,-100.00,South,189,5.0,10.0,52,0.00,,,0.00,585.000000,,2013-09-13 19:01:00,
2013-09-13 14:43:00,65.0,47.0,-100.00,SW,225,5.0,12.0,53,0.00,,,0.00,574.000000,,2013-09-13 19:43:00,
2013-09-13 14:52:00,65.0,47.0,-100.00,SW,225,5.0,12.0,53,0.00,,,0.00,574.000000,,2013-09-13 19:52:00,
2013-09-13 15:02:00,65.0,47.0,-100.00,SW,225,5.0,12.0,53,0.00,,,0.00,574.000000,,2013-09-13 20:02:00,
2013-09-13 15:43:00,64.0,47.0,-100.00,SSW,196,6.0,13.0,53,0.00,,,0.00,394.000000,,2013-09-13 20:43:00,
2013-09-13 15:52:00,64.0,47.0,-100.00,SSW,196,6.0,13.0,53,0.00,,,0.00,394.000000,,2013-09-13 20:52:00,
2013-09-13 16:02:00,64.0,47.0,-100.00,SSW,196,6.0,13.0,53,0.00,,,0.00,394.000000,,2013-09-13 21:02:00,
2013-09-13 16:04:00,67.0,49.0,-100.00,SSW,203,6.0,11.0,52,0.00,,,0.00,410.000000,,2013-09-13 21:04:00,
2013-09-13 16:44:00,67.0,49.0,-100.00,SSW,203,6.0,11.0,52,0.00,,,0.00,410.000000,,2013-09-13 21:44:00,
2013-09-13 16:54:00,67.0,49.0,-100.00,SSW,203,6.0,11.0,52,0.00,,,0.00,410.000000,,2013-09-13 21:54:00,
2013-09-13 17:24:00,67.0,46.0,-100.00,SW,234,5.0,11.0,47,0.00,,,0.00,476.000000,,2013-09-13 22:24:00,
2013-09-13 17:33:00,67.0,46.0,-100.00,SW,234,5.0,11.0,47,0.00,,,0.00,476.000000,,2013-09-13 22:33:00,
2013-09-13 17:43:00,67.0,46.0,-100.00,SW,234,5.0,11.0,47,0.00,,,0.00,476.000000,,2013-09-13 22:43:00,
2013-09-13 17:53:00,67.0,46.0,-100.00,SW,234,5.0,11.0,47,0.00,,,0.00,476.000000,,2013-09-13 22:53:00,
2013-09-13 18:03:00,67.0,46.0,-100.00,SW,234,5.0,11.0,47,0.00,,,0.00,476.000000,,2013-09-13 23:03:00,
2013-09-13 18:43:00,63.0,44.0,-100.00,SW,221,4.0,12.0,49,0.00,,,0.00,279.000000,,2013-09-13 23:43:00,
2013-09-13 18:53:00,63.0,44.0,-100.00,SW,221,4.0,12.0,49,0.00,,,0.00,279.000000,,2013-09-13 23:53:00,
2013-09-13 19:01:00,63.0,44.0,-100.00,SW,221,4.0,12.0,49,0.00,,,0.00,279.000000,,2013-09-14 00:01:00,
2013-09-13 19:22:00,60.0,45.0,-100.00,South,191,3.0,10.0,58,0.00,,,0.00,45.000000,,2013-09-14 00:22:00,
2013-09-13 19:32:00,60.0,45.0,-100.00,South,191,3.0,10.0,58,0.00,,,0.00,45.000000,,2013-09-14 00:32:00,
2013-09-13 19:42:00,60.0,45.0,-100.00,South,191,3.0,10.0,58,0.00,,,0.00,45.000000,,2013-09-14 00:42:00,
2013-09-13 19:52:00,60.0,45.0,-100.00,South,191,3.0,10.0,58,0.00,,,0.00,45.000000,,2013-09-14 00:52:00,
2013-09-13 20:02:00,60.0,45.0,-100.00,South,191,3.0,10.0,58,0.00,,,0.00,45.000000,,2013-09-14 01:02:00,
2013-09-13 20:42:00,55.0,46.0,-100.00,South,191,3.0,6.0,72,0.00,,,0.00,4.000000,,2013-09-14 01:42:00,
2013-09-13 20:52:00,55.0,46.0,-100.00,South,191,3.0,6.0,72,0.00,,,0.00,4.000000,,2013-09-14 01:52:00,
2013-09-13 21:02:00,55.0,46.0,-100.00,South,191,3.0,6.0,72,0.00,,,0.00,4.000000,,2013-09-14 02:02:00,
2013-09-13 21:22:00,54.0,47.0,-100.00,South,184,4.0,6.0,76,0.00,,,0.00,0.000000,,2013-09-14 02:22:00,
2013-09-13 21:33:00,54.0,47.0,-100.00,South,184,4.0,6.0,76,0.00,,,0.00,0.000000,,2013-09-14 02:33:00,
2013-09-13 21:42:00,54.0,47.0,-100.00,South,184,4.0,6.0,76,0.00,,,0.00,0.000000,,2013-09-14 02:42:00,
2013-09-13 21:52:00,54.0,47.0,-100.00,South,184,4.0,6.0,76,0.00,,,0.00,0.000000,,2013-09-14 02:52:00,
2013-09-13 22:02:00,54.0,47.0,-100.00,South,184,4.0,6.0,76,0.00,,,0.00,0.000000,,2013-09-14 03:02:00,
2013-09-13 22:04:00,53.0,47.0,-100.00,South,190,4.0,8.0,80,0.00,,,0.00,0.000000,,2013-09-14 03:04:00,
2013-09-13 22:22:00,53.0,47.0,-100.00,South,190,4.0,8.0,80,0.00,,,0.00,0.000000,,2013-09-14 03:22:00,
2013-09-13 22:34:00,53.0,47.0,-100.00,South,190,4.0,8.0,80,0.00,,,0.00,0.000000,,2013-09-14 03:34:00,
2013-09-13 22:45:00,53.0,47.0,-100.00,South,190,4.0,8.0,80,0.00,,,0.00,0.000000,,2013-09-14 03:45:00,
2013-09-13 22:55:00,53.0,47.0,-100.00,South,190,4.0,8.0,80,0.00,,,0.00,0.000000,,2013-09-14 03:55:00,
2013-09-13 23:43:00,51.0,47.0,-100.00,South,185,5.0,8.0,85,0.00,,,0.00,0.000000,,2013-09-14 04:43:00,
2013-09-13 23:54:00,51.0,47.0,-100.00,South,185,5.0,8.0,85,0.00,,,0.00,0.000000,,2013-09-14 04:54:00,